Time;durP1;ratioP1;P1;durP2;ratioP2;P2;SDS_P1;SDS_P2;PMS_P1;PMS_P2;Temp;Humidity;BMP_temperature;BMP_pressure;BME280_temperature;BME280_humidity;BME280_pressure;Samples;Min_cycle;Max_cycle;Signal;HPM_P1;HPM_P2
2023/07/09 00:00:13;;;;;;;4.20;2.90;;;22.30;98.00;;;;;;5011584;28;20460;-70
2023/07/09 00:02:41;;;;;;;5.00;3.10;;;22.40;98.00;;;;;;5012215;28;20467;-70
2023/07/09 00:05:12;;;;;;;4.60;2.63;;;22.30;98.00;;;;;;5012141;28;20444;-69
2023/07/09 00:07:39;;;;;;;5.67;2.80;;;22.30;98.00;;;;;;5012147;28;20466;-69
2023/07/09 00:10:14;;;;;;;4.83;2.80;;;22.10;98.00;;;;;;5011845;28;20462;-69
2023/07/09 00:12:43;;;;;;;5.77;3.03;;;21.90;98.00;;;;;;5012046;28;20455;-69
2023/07/09 00:15:15;;;;;;;5.50;3.20;;;21.90;98.00;;;;;;5011873;28;20898;-70
2023/07/09 00:17:43;;;;;;;7.07;3.77;;;21.70;98.00;;;;;;5012107;28;20866;-70
2023/07/09 00:20:13;;;;;;;3.73;2.67;;;21.70;98.00;;;;;;5012088;28;20463;-70
2023/07/09 00:22:41;;;;;;;6.73;3.20;;;21.60;98.00;;;;;;5011900;28;20543;-70
2023/07/09 00:25:13;;;;;;;4.67;2.97;;;21.40;98.00;;;;;;5011586;28;20461;-70
2023/07/09 00:27:44;;;;;;;7.10;3.17;;;21.40;98.00;;;;;;5011833;28;20507;-70
2023/07/09 00:30:17;;;;;;;5.13;3.10;;;21.40;98.00;;;;;;5011644;28;20534;-70
2023/07/09 00:32:53;;;;;;;4.47;2.77;;;21.50;98.00;;;;;;5011643;28;20498;-70
2023/07/09 00:35:20;;;;;;;4.90;3.10;;;21.50;98.00;;;;;;5011519;28;20515;-70
2023/07/09 00:37:47;;;;;;;5.37;3.30;;;21.40;98.00;;;;;;5011484;28;20573;-69
2023/07/09 00:40:19;;;;;;;4.90;3.30;;;21.40;98.00;;;;;;5011502;28;20447;-70
2023/07/09 00:42:48;;;;;;;4.33;2.83;;;21.40;98.00;;;;;;5011399;28;20456;-69
2023/07/09 00:45:25;;;;;;;4.50;2.90;;;21.20;98.00;;;;;;5011174;28;20455;-69
2023/07/09 00:47:57;;;;;;;6.60;3.37;;;21.10;98.00;;;;;;5011431;28;20470;-69
2023/07/09 00:50:36;;;;;;;5.90;3.30;;;21.20;98.00;;;;;;5011077;28;21072;-69
2023/07/09 00:53:12;;;;;;;4.77;2.93;;;21.00;98.00;;;;;;5011423;28;20471;-69
2023/07/09 00:55:44;;;;;;;5.53;3.00;;;21.00;98.00;;;;;;5011404;28;20487;-69
2023/07/09 00:58:15;;;;;;;4.83;3.10;;;21.20;98.00;;;;;;5011405;28;20459;-69
2023/07/09 01:00:47;;;;;;;4.13;2.80;;;21.20;98.00;;;;;;5011221;28;20542;-69
2023/07/09 01:03:21;;;;;;;5.10;3.23;;;21.40;98.00;;;;;;5011353;28;20861;-69
2023/07/09 01:05:51;;;;;;;4.73;3.00;;;21.40;98.00;;;;;;5011319;28;20702;-70
2023/07/09 01:08:19;;;;;;;4.97;3.30;;;21.30;98.00;;;;;;5011221;28;20466;-69
2023/07/09 01:10:47;;;;;;;4.80;3.10;;;21.30;98.00;;;;;;5011236;28;20555;-69
2023/07/09 01:13:14;;;;;;;11.50;3.20;;;21.40;98.00;;;;;;5014310;28;20467;-69
2023/07/09 01:15:43;;;;;;;4.50;2.73;;;21.30;98.00;;;;;;5015267;28;20487;-69
2023/07/09 01:18:10;;;;;;;4.00;2.90;;;21.30;98.00;;;;;;5015246;28;20867;-69
2023/07/09 01:20:40;;;;;;;4.60;2.80;;;21.20;98.00;;;;;;5015012;28;20542;-69
2023/07/09 01:23:09;;;;;;;4.70;2.70;;;21.10;98.00;;;;;;5015002;28;20459;-69
2023/07/09 01:25:39;;;;;;;5.20;3.20;;;21.10;98.00;;;;;;5014621;28;21020;-69
2023/07/09 01:28:06;;;;;;;3.97;2.93;;;21.00;98.00;;;;;;5014863;28;20470;-69
2023/07/09 01:30:36;;;;;;;4.20;2.90;;;21.20;98.00;;;;;;5014844;28;20455;-69
2023/07/09 01:33:06;;;;;;;7.10;3.30;;;21.20;98.00;;;;;;5014807;28;20455;-69
2023/07/09 01:35:40;;;;;;;4.97;3.23;;;21.40;98.00;;;;;;5014514;28;20651;-69
2023/07/09 01:38:09;;;;;;;5.87;3.10;;;21.40;98.00;;;;;;5014711;28;20459;-69
2023/07/09 01:40:37;;;;;;;5.30;3.10;;;21.20;98.00;;;;;;5014666;28;20460;-69
2023/07/09 01:43:06;;;;;;;4.50;2.80;;;21.20;98.00;;;;;;5014587;28;20458;-69
2023/07/09 01:45:34;;;;;;;4.27;2.80;;;21.10;98.00;;;;;;5014345;28;20491;-69
2023/07/09 01:48:02;;;;;;;4.80;2.93;;;21.00;98.00;;;;;;5014524;28;20467;-69
2023/07/09 01:50:30;;;;;;;5.70;3.17;;;21.00;98.00;;;;;;5014257;28;20471;-69
2023/07/09 01:52:58;;;;;;;5.27;3.20;;;20.90;98.00;;;;;;5014438;28;20456;-69
2023/07/09 01:55:29;;;;;;;5.80;3.13;;;20.80;98.00;;;;;;5014218;28;20577;-69
2023/07/09 01:57:56;;;;;;;4.90;2.87;;;20.80;98.00;;;;;;5014402;28;20470;-69
2023/07/09 02:00:23;;;;;;;7.00;3.13;;;20.80;98.00;;;;;;5014197;28;21013;-69
2023/07/09 02:02:52;;;;;;;6.90;4.07;;;20.70;98.00;;;;;;5014437;28;20458;-69
2023/07/09 02:05:20;;;;;;;4.70;3.30;;;20.60;98.00;;;;;;5014146;28;20452;-69
2023/07/09 02:07:48;;;;;;;5.83;3.50;;;20.60;98.00;;;;;;5014216;28;20463;-69
2023/07/09 02:10:16;;;;;;;4.70;3.00;;;20.50;98.00;;;;;;5014080;28;20463;-69
2023/07/09 02:12:48;;;;;;;4.80;3.00;;;20.60;98.00;;;;;;5014510;28;20819;-69
2023/07/09 02:15:16;;;;;;;4.63;3.00;;;20.40;98.00;;;;;;5014407;28;20515;-69
2023/07/09 02:17:45;;;;;;;5.70;3.10;;;20.30;98.00;;;;;;5013994;28;20455;-69
2023/07/09 02:20:13;;;;;;;6.70;3.73;;;20.20;98.00;;;;;;5013859;28;20460;-69
2023/07/09 02:22:41;;;;;;;5.90;3.10;;;20.20;98.00;;;;;;5013478;28;20463;-69
2023/07/09 02:25:09;;;;;;;3.93;2.87;;;20.10;98.00;;;;;;5013705;28;20981;-69
2023/07/09 02:27:37;;;;;;;5.30;3.20;;;20.10;98.00;;;;;;5013907;28;20538;-69
2023/07/09 02:30:07;;;;;;;4.90;3.10;;;20.20;98.00;;;;;;5013632;28;20452;-69
2023/07/09 02:32:34;;;;;;;5.77;3.53;;;20.10;98.00;;;;;;5013757;28;20455;-70
2023/07/09 02:35:01;;;;;;;5.33;3.07;;;20.30;98.00;;;;;;5013787;28;20879;-69
2023/07/09 02:37:28;;;;;;;4.80;3.17;;;20.40;98.00;;;;;;5013505;28;20452;-69
2023/07/09 02:39:55;;;;;;;5.40;3.47;;;20.10;98.00;;;;;;5013490;28;20444;-69
2023/07/09 02:42:24;;;;;;;4.60;3.10;;;19.90;98.00;;;;;;5013505;28;20467;-69
2023/07/09 02:44:51;;;;;;;7.67;3.43;;;19.80;98.00;;;;;;5013422;28;20514;-69
2023/07/09 02:47:20;;;;;;;6.10;3.13;;;19.80;98.00;;;;;;5013275;28;20459;-69
2023/07/09 02:49:47;;;;;;;6.93;3.30;;;19.60;98.00;;;;;;5013218;28;20487;-69
2023/07/09 02:52:14;;;;;;;4.10;2.70;;;19.50;98.00;;;;;;5013259;28;20518;-69
2023/07/09 02:54:42;;;;;;;5.23;3.03;;;19.50;98.00;;;;;;5013468;28;20479;-69
2023/07/09 02:57:10;;;;;;;5.70;3.30;;;19.60;98.00;;;;;;5013054;28;20462;-69
2023/07/09 02:59:37;;;;;;;8.10;3.10;;;19.80;98.00;;;;;;5011855;28;20490;-69
2023/07/09 03:02:04;;;;;;;5.40;3.20;;;19.70;98.00;;;;;;5013180;28;20555;-69
2023/07/09 03:04:33;;;;;;;7.37;3.00;;;19.70;98.00;;;;;;5013153;28;20526;-69
2023/07/09 03:07:00;;;;;;;5.70;3.33;;;19.60;98.00;;;;;;5013317;28;20535;-69
2023/07/09 03:09:27;;;;;;;3.40;2.53;;;19.50;98.00;;;;;;5013244;28;20447;-69
2023/07/09 03:11:55;;;;;;;6.00;3.30;;;19.50;98.00;;;;;;5013081;28;20448;-69
2023/07/09 03:14:23;;;;;;;5.07;3.13;;;19.60;98.00;;;;;;5012867;28;20459;-69
2023/07/09 03:16:50;;;;;;;5.10;3.43;;;19.70;98.00;;;;;;5011692;28;20522;-69
2023/07/09 03:19:17;;;;;;;9.80;3.60;;;19.50;98.00;;;;;;5012775;28;20522;-69
2023/07/09 03:21:45;;;;;;;7.10;3.57;;;19.40;98.00;;;;;;5012968;28;20460;-69
2023/07/09 03:24:18;;;;;;;4.70;2.93;;;19.40;98.00;;;;;;5012880;28;20451;-69
2023/07/09 03:26:45;;;;;;;5.37;2.93;;;19.40;98.00;;;;;;5012353;28;20451;-69
2023/07/09 03:29:13;;;;;;;11.40;3.00;;;19.30;98.00;;;;;;5012495;28;20522;-69
2023/07/09 03:31:41;;;;;;;6.77;3.10;;;19.50;98.00;;;;;;5012619;28;20487;-69
2023/07/09 03:34:08;;;;;;;4.90;3.10;;;19.50;98.00;;;;;;5010726;28;20455;-69
2023/07/09 03:36:38;;;;;;;5.10;3.27;;;19.40;98.00;;;;;;5011914;28;20515;-69
2023/07/09 03:39:07;;;;;;;4.83;3.00;;;19.40;98.00;;;;;;5012458;28;20499;-69
2023/07/09 03:41:34;;;;;;;4.87;3.00;;;19.30;98.00;;;;;;5012546;28;20818;-69
2023/07/09 03:44:01;;;;;;;4.53;3.07;;;19.40;98.00;;;;;;5012387;28;20965;-69
2023/07/09 03:46:28;;;;;;;8.97;3.73;;;19.40;98.00;;;;;;5012237;28;20458;-69
2023/07/09 03:48:56;;;;;;;7.13;3.17;;;19.40;98.00;;;;;;5012271;28;20459;-69
2023/07/09 03:51:23;;;;;;;5.63;3.33;;;19.40;98.00;;;;;;5012081;28;20462;-69
2023/07/09 03:53:50;;;;;;;8.70;3.70;;;19.60;98.00;;;;;;5012416;28;20459;-69
2023/07/09 03:56:19;;;;;;;5.07;3.20;;;19.40;98.00;;;;;;5011963;28;20558;-69
2023/07/09 03:58:46;;;;;;;5.40;3.23;;;19.30;98.00;;;;;;5012204;28;20451;-69
2023/07/09 04:01:13;;;;;;;4.53;3.00;;;19.30;98.00;;;;;;5012098;28;20953;-69
2023/07/09 04:03:40;;;;;;;5.83;3.30;;;19.30;98.00;;;;;;4992968;28;20448;-69
2023/07/09 04:06:07;;;;;;;8.67;3.60;;;19.60;98.00;;;;;;4992342;28;20456;-69
2023/07/09 04:08:34;;;;;;;5.90;3.57;;;19.50;98.00;;;;;;4992500;28;20867;-69
2023/07/09 04:11:03;;;;;;;6.67;3.23;;;19.40;98.00;;;;;;4992311;28;20456;-69
2023/07/09 04:13:32;;;;;;;5.37;3.07;;;19.20;98.00;;;;;;4991115;28;20496;-69
2023/07/09 04:16:01;;;;;;;5.00;3.10;;;19.40;98.00;;;;;;4992320;28;20528;-69
2023/07/09 04:18:28;;;;;;;4.17;3.07;;;19.60;98.00;;;;;;4992029;28;20518;-69
2023/07/09 04:20:55;;;;;;;9.10;3.70;;;19.60;98.00;;;;;;4992148;28;20460;-69
2023/07/09 04:23:22;;;;;;;5.30;3.67;;;19.50;98.00;;;;;;4992325;28;20453;-69
2023/07/09 04:25:49;;;;;;;6.47;3.33;;;19.30;98.00;;;;;;4992125;28;20989;-69
2023/07/09 04:28:17;;;;;;;7.03;3.83;;;19.20;98.00;;;;;;4991999;28;20503;-69
2023/07/09 04:30:49;;;;;;;5.17;3.33;;;19.10;98.00;;;;;;4991911;28;20453;-69
2023/07/09 04:33:18;;;;;;;6.67;3.20;;;19.10;98.00;;;;;;4991996;28;20472;-69
2023/07/09 04:35:45;;;;;;;4.43;3.17;;;19.00;98.00;;;;;;4991895;28;20572;-69
2023/07/09 04:38:13;;;;;;;4.50;3.03;;;19.00;98.00;;;;;;4991936;28;20449;-69
2023/07/09 04:40:40;;;;;;;10.90;3.90;;;19.00;98.00;;;;;;4991948;28;20511;-69
2023/07/09 04:43:07;;;;;;;7.17;3.50;;;19.10;98.00;;;;;;4991929;28;20463;-69
2023/07/09 04:45:34;;;;;;;6.40;3.87;;;19.30;98.00;;;;;;4991554;28;20471;-69
2023/07/09 04:48:03;;;;;;;6.13;3.27;;;19.50;98.00;;;;;;4991118;28;20970;-69
2023/07/09 04:50:30;;;;;;;8.67;4.17;;;19.50;98.00;;;;;;4991633;28;20468;-69
2023/07/09 04:52:57;;;;;;;5.60;3.10;;;19.70;98.00;;;;;;4991862;28;20460;-69
2023/07/09 04:55:27;;;;;;;6.53;3.40;;;19.70;98.00;;;;;;4991762;28;20495;-69
2023/07/09 04:57:54;;;;;;;7.40;3.30;;;19.80;98.00;;;;;;4992026;28;20464;-69
2023/07/09 05:00:21;;;;;;;6.33;3.70;;;19.90;98.00;;;;;;4991689;28;20465;-69
2023/07/09 05:02:48;;;;;;;6.60;3.17;;;20.00;98.00;;;;;;4991852;28;20979;-69
2023/07/09 05:05:16;;;;;;;8.57;3.77;;;20.00;98.00;;;;;;4991700;28;20456;-69
2023/07/09 05:07:43;;;;;;;6.53;3.60;;;20.10;98.00;;;;;;4991756;28;20456;-69
2023/07/09 05:10:11;;;;;;;5.80;3.50;;;20.40;98.00;;;;;;4990743;28;20523;-69
2023/07/09 05:12:50;;;;;;;7.17;3.40;;;20.40;98.00;;;;;;4991574;28;20864;-69
2023/07/09 05:15:18;;;;;;;11.00;3.57;;;20.50;98.00;;;;;;4991499;28;20953;-69
2023/07/09 05:17:45;;;;;;;7.00;4.10;;;20.50;98.00;;;;;;4991687;28;20827;-69
2023/07/09 05:20:13;;;;;;;7.97;3.80;;;20.50;98.00;;;;;;4990218;28;20459;-69
2023/07/09 05:22:41;;;;;;;5.73;3.30;;;20.60;98.00;;;;;;4991513;28;20463;-69
2023/07/09 05:25:09;;;;;;;5.87;3.43;;;20.60;98.00;;;;;;4991471;28;20456;-69
2023/07/09 05:27:36;;;;;;;6.73;3.70;;;20.60;98.00;;;;;;4991485;28;20464;-69
2023/07/09 05:30:04;;;;;;;6.10;3.70;;;20.70;98.00;;;;;;4991355;28;20455;-69
2023/07/09 05:32:31;;;;;;;6.63;3.70;;;20.90;98.00;;;;;;4991416;28;20445;-69
2023/07/09 05:35:00;;;;;;;6.90;3.93;;;21.00;98.00;;;;;;4991623;28;20515;-69
2023/07/09 05:37:27;;;;;;;6.80;4.30;;;21.00;98.00;;;;;;4991311;28;20546;-69
2023/07/09 05:39:55;;;;;;;5.63;3.47;;;21.10;98.00;;;;;;4991443;28;20941;-69
2023/07/09 05:42:24;;;;;;;7.67;4.00;;;21.20;98.00;;;;;;4991375;28;20456;-69
2023/07/09 05:44:53;;;;;;;9.70;3.90;;;21.30;98.00;;;;;;4991494;28;20468;-69
2023/07/09 05:47:20;;;;;;;8.23;3.73;;;21.40;98.00;;;;;;4991338;28;20495;-69
2023/07/09 05:49:49;;;;;;;5.00;3.43;;;21.50;98.00;;;;;;4991317;28;20518;-69
2023/07/09 05:52:16;;;;;;;7.23;4.23;;;21.60;98.00;;;;;;4991530;28;20475;-69
2023/07/09 05:54:43;;;;;;;6.67;3.80;;;21.70;98.00;;;;;;4991502;28;20452;-69
2023/07/09 05:57:12;;;;;;;6.00;3.50;;;21.60;98.00;;;;;;4991261;28;20485;-69
2023/07/09 05:59:40;;;;;;;6.57;3.67;;;21.80;98.00;;;;;;4994236;28;20465;-69
2023/07/09 06:02:11;;;;;;;8.30;3.97;;;22.00;98.00;;;;;;4994698;28;20512;-69
2023/07/09 06:04:38;;;;;;;6.20;4.33;;;22.00;98.00;;;;;;4994705;28;20464;-69
2023/07/09 06:07:07;;;;;;;6.57;3.73;;;22.20;98.00;;;;;;4993840;28;20468;-69
2023/07/09 06:09:34;;;;;;;6.20;3.47;;;22.10;98.00;;;;;;4994563;28;20464;-69
2023/07/09 06:12:01;;;;;;;5.30;3.50;;;22.20;98.00;;;;;;4994813;28;20523;-62
2023/07/09 06:14:30;;;;;;;8.47;4.03;;;22.30;98.00;;;;;;4994349;28;20550;-61
2023/07/09 06:16:57;;;;;;;6.23;3.83;;;22.30;98.00;;;;;;4994663;28;20495;-62
2023/07/09 06:19:25;;;;;;;7.63;4.80;;;22.50;98.00;;;;;;4994524;28;20456;-62
2023/07/09 06:21:53;;;;;;;6.70;4.07;;;22.60;98.00;;;;;;4994422;28;20472;-62
2023/07/09 06:24:20;;;;;;;6.53;3.90;;;22.60;98.00;;;;;;4994185;28;20464;-62
2023/07/09 06:26:47;;;;;;;7.93;4.30;;;22.70;98.00;;;;;;4994295;28;20981;-62
2023/07/09 06:29:14;;;;;;;7.50;4.00;;;22.80;98.00;;;;;;4994201;28;20475;-62
2023/07/09 06:31:42;;;;;;;5.53;3.80;;;22.90;98.00;;;;;;4994110;28;20947;-62
2023/07/09 06:34:10;;;;;;;6.13;3.70;;;23.00;98.00;;;;;;4993357;28;20551;-65
2023/07/09 06:36:37;;;;;;;6.33;3.20;;;23.10;98.00;;;;;;4993864;28;20484;-65
2023/07/09 06:39:05;;;;;;;5.40;3.53;;;23.30;98.00;;;;;;4994213;28;20465;-65
2023/07/09 06:41:38;;;;;;;5.30;3.70;;;23.60;98.00;;;;;;4994061;28;20484;-65
2023/07/09 06:44:06;;;;;;;10.03;4.10;;;23.70;98.00;;;;;;4993142;28;20535;-65
2023/07/09 06:46:33;;;;;;;7.33;4.00;;;23.90;98.00;;;;;;4994054;28;20530;-65
2023/07/09 06:49:05;;;;;;;7.00;3.50;;;24.00;98.00;;;;;;4992705;28;20957;-65
2023/07/09 06:51:32;;;;;;;6.50;3.80;;;24.10;98.00;;;;;;4993737;28;20460;-65
2023/07/09 06:54:02;;;;;;;7.57;3.97;;;24.30;98.00;;;;;;4993855;28;20460;-65
2023/07/09 06:56:29;;;;;;;6.27;3.80;;;24.50;98.00;;;;;;4993483;28;20838;-65
2023/07/09 06:58:56;;;;;;;7.50;4.40;;;24.70;98.00;;;;;;4991439;28;20451;-65
2023/07/09 07:01:24;;;;;;;8.33;4.10;;;25.00;98.00;;;;;;4991065;28;20839;-65
2023/07/09 07:03:51;;;;;;;6.90;4.10;;;25.10;98.00;;;;;;4992437;28;20453;-65
2023/07/09 07:06:19;;;;;;;8.03;4.70;;;25.20;98.00;;;;;;4992659;28;20208;-64
2023/07/09 07:08:46;;;;;;;6.33;4.00;;;25.30;98.00;;;;;;4993413;28;20453;-65
2023/07/09 07:11:13;;;;;;;8.37;4.37;;;25.50;98.00;;;;;;4993248;28;20464;-64
2023/07/09 07:13:42;;;;;;;6.33;3.80;;;25.60;98.00;;;;;;4998745;28;20451;-64
2023/07/09 07:16:11;;;;;;;7.90;4.60;;;25.70;98.00;;;;;;5012835;28;20484;-64
2023/07/09 07:18:38;;;;;;;5.77;4.10;;;25.90;98.00;;;;;;5012929;28;20471;-64
2023/07/09 07:21:07;;;;;;;6.90;4.30;;;25.80;98.00;;;;;;5012762;28;20571;-64
2023/07/09 07:23:36;;;;;;;6.90;4.43;;;25.90;98.00;;;;;;5012742;28;20455;-64
2023/07/09 07:26:03;;;;;;;8.13;4.30;;;26.10;97.90;;;;;;5012331;28;20656;-65
2023/07/09 07:28:30;;;;;;;8.57;5.00;;;26.20;98.00;;;;;;5012789;28;20455;-64
2023/07/09 07:31:01;;;;;;;6.63;4.50;;;26.20;98.00;;;;;;5012511;28;20514;-64
2023/07/09 07:33:29;;;;;;;7.97;4.70;;;26.30;97.90;;;;;;5012528;28;20663;-64
2023/07/09 07:35:56;;;;;;;7.83;4.53;;;26.50;97.50;;;;;;5012520;28;20460;-65
2023/07/09 07:38:23;;;;;;;10.27;4.77;;;26.60;96.80;;;;;;5000007;28;20461;-64
2023/07/09 07:40:53;;;;;;;8.80;4.73;;;26.70;97.00;;;;;;4994257;28;20547;-64
2023/07/09 07:43:20;;;;;;;7.13;4.30;;;26.80;96.60;;;;;;4993102;28;20511;-63
2023/07/09 07:45:49;;;;;;;7.40;4.50;;;26.80;96.20;;;;;;4992831;28;20547;-62
2023/07/09 07:48:16;;;;;;;7.87;4.20;;;26.90;96.20;;;;;;4992857;28;20463;-60
2023/07/09 07:50:45;;;;;;;6.97;4.20;;;27.10;95.80;;;;;;4991366;28;20891;-61
2023/07/09 07:53:13;;;;;;;8.00;4.40;;;27.10;94.50;;;;;;4992641;28;20471;-60
2023/07/09 07:55:40;;;;;;;6.73;4.10;;;27.20;93.80;;;;;;4992761;28;20460;-60
2023/07/09 07:58:10;;;;;;;8.33;4.40;;;27.30;93.60;;;;;;4991233;28;20488;-60
2023/07/09 08:00:38;;;;;;;7.57;4.17;;;27.30;93.80;;;;;;4992700;28;20452;-60
2023/07/09 08:03:05;;;;;;;5.97;3.90;;;27.50;93.00;;;;;;4992455;28;20460;-60
2023/07/09 08:05:32;;;;;;;8.13;4.80;;;27.60;92.90;;;;;;4992213;28;20453;-60
2023/07/09 08:07:59;;;;;;;8.03;4.30;;;27.70;92.40;;;;;;4992492;28;20460;-61
2023/07/09 08:10:26;;;;;;;9.90;4.30;;;27.70;91.90;;;;;;4992303;28;20554;-60
2023/07/09 08:12:57;;;;;;;5.80;4.17;;;27.90;91.50;;;;;;4992410;28;20880;-62
2023/07/09 08:15:25;;;;;;;7.30;4.50;;;28.00;91.80;;;;;;4992423;28;20560;-61
2023/07/09 08:17:53;;;;;;;7.57;4.17;;;28.20;91.20;;;;;;4992251;28;20484;-61
2023/07/09 08:20:20;;;;;;;7.97;4.17;;;28.30;91.00;;;;;;4991847;28;20942;-62
2023/07/09 08:22:47;;;;;;;7.90;4.33;;;28.50;91.10;;;;;;4992266;28;20464;-62
2023/07/09 08:25:14;;;;;;;7.40;4.40;;;28.60;90.50;;;;;;4991946;28;20460;-62
2023/07/09 08:27:41;;;;;;;7.07;4.23;;;28.80;90.70;;;;;;4992037;28;20471;-62
2023/07/09 08:30:09;;;;;;;7.90;4.43;;;29.00;89.30;;;;;;4992314;28;20456;-62
2023/07/09 08:32:38;;;;;;;6.30;4.40;;;29.20;88.70;;;;;;4992271;28;20456;-62
2023/07/09 08:35:05;;;;;;;6.40;4.43;;;29.30;88.40;;;;;;4992570;28;20464;-62
2023/07/09 08:37:32;;;;;;;7.53;4.57;;;29.50;88.20;;;;;;4991922;28;20481;-62
2023/07/09 08:40:00;;;;;;;9.87;4.70;;;29.50;87.70;;;;;;4990839;28;20456;-63
2023/07/09 08:42:32;;;;;;;7.83;5.10;;;29.60;87.40;;;;;;4991923;28;20452;-62
2023/07/09 08:45:12;;;;;;;7.27;5.07;;;29.50;87.40;;;;;;4992046;28;20820;-62
2023/07/09 08:47:48;;;;;;;9.37;4.40;;;29.60;86.80;;;;;;4992172;28;20463;-61
2023/07/09 08:50:18;;;;;;;11.37;5.00;;;29.70;87.10;;;;;;4990528;28;20760;-61
2023/07/09 08:52:49;;;;;;;8.40;4.80;;;29.90;86.80;;;;;;4992067;28;20588;-60
2023/07/09 08:55:19;;;;;;;8.10;4.70;;;30.00;86.60;;;;;;4991231;28;20487;-60
2023/07/09 08:57:50;;;;;;;7.33;4.57;;;30.10;85.00;;;;;;4991652;28;20492;-60
2023/07/09 09:00:24;;;;;;;8.60;4.40;;;30.30;85.60;;;;;;4991768;28;20461;-61
2023/07/09 09:02:57;;;;;;;8.50;4.47;;;30.50;84.10;;;;;;4991984;28;20483;-62
2023/07/09 09:05:25;;;;;;;7.97;4.60;;;30.50;83.70;;;;;;4991665;28;20828;-62
2023/07/09 09:08:00;;;;;;;9.90;4.70;;;30.70;84.40;;;;;;4991704;28;20486;-62
2023/07/09 09:10:34;;;;;;;6.57;4.10;;;30.80;83.70;;;;;;4990601;28;20887;-62
2023/07/09 09:13:09;;;;;;;7.10;4.70;;;31.00;83.50;;;;;;4991696;28;20472;-62
2023/07/09 09:15:39;;;;;;;7.03;4.03;;;31.10;83.00;;;;;;4991666;28;20456;-62
2023/07/09 09:18:22;;;;;;;7.97;4.00;;;31.20;82.40;;;;;;4991753;28;20535;-62
2023/07/09 09:20:56;;;;;;;6.83;4.20;;;31.30;80.70;;;;;;4991720;28;20464;-62
2023/07/09 09:23:26;;;;;;;7.43;4.23;;;31.40;81.40;;;;;;4992182;28;20460;-62
2023/07/09 09:25:56;;;;;;;6.20;4.23;;;31.50;81.10;;;;;;4992181;28;20468;-63
2023/07/09 09:28:25;;;;;;;7.37;4.13;;;31.80;80.40;;;;;;4992431;28;20472;-63
2023/07/09 09:30:52;;;;;;;7.07;4.30;;;32.00;79.60;;;;;;4992583;28;20460;-62
2023/07/09 09:33:21;;;;;;;9.23;4.47;;;32.30;79.00;;;;;;4993564;28;20464;-63
2023/07/09 09:36:13;;;;;;;5.70;3.73;;;32.50;78.00;;;;;;4996217;28;20453;-63
2023/07/09 09:38:40;;;;;;;7.00;4.43;;;32.60;78.40;;;;;;4995847;28;20855;-63
2023/07/09 09:41:13;;;;;;;5.50;3.80;;;32.90;76.80;;;;;;4995979;28;20456;-62
2023/07/09 09:43:43;;;;;;;4.90;3.63;;;33.00;75.70;;;;;;4995655;28;20460;-63
2023/07/09 09:46:17;;;;;;;7.50;3.80;;;33.00;75.60;;;;;;4995476;28;20495;-63
2023/07/09 09:48:46;;;;;;;5.33;3.70;;;33.10;76.00;;;;;;4995800;28;20461;-62
2023/07/09 09:53:46;;;;;;;6.80;4.13;;;33.40;75.20;;;;;;4993373;28;20472;-61
2023/07/09 10:01:15;;;;;;;6.87;3.90;;;33.60;74.30;;;;;;4992956;28;20983;-60
2023/07/09 10:03:44;;;;;;;10.20;3.97;;;33.80;73.20;;;;;;4995331;28;20946;-61
2023/07/09 10:06:19;;;;;;;6.27;4.20;;;34.00;73.60;;;;;;4994865;28;20559;-62
2023/07/09 10:08:56;;;;;;;5.50;3.40;;;34.20;72.40;;;;;;4995341;28;20450;-61
2023/07/09 10:11:32;;;;;;;4.63;3.50;;;34.40;71.20;;;;;;4977836;28;20471;-61
2023/07/09 10:14:17;;;;;;;4.60;3.33;;;34.50;68.60;;;;;;4994503;28;20555;-61
2023/07/09 10:16:49;;;;;;;5.47;3.50;;;34.50;67.20;;;;;;4994408;28;20460;-61
2023/07/09 10:19:25;;;;;;;5.43;3.60;;;34.60;67.00;;;;;;4977254;28;20460;-61
2023/07/09 10:22:01;;;;;;;4.43;3.17;;;34.70;66.80;;;;;;4993321;28;20468;-61
2023/07/09 10:24:45;;;;;;;5.20;3.37;;;34.80;65.10;;;;;;4993507;28;20463;-60
2023/07/09 10:27:17;;;;;;;4.73;3.00;;;34.90;66.10;;;;;;4994162;28;20453;-61
2023/07/09 10:30:00;;;;;;;5.90;3.60;;;35.00;65.80;;;;;;4994588;28;20480;-60
2023/07/09 10:32:40;;;;;;;5.43;3.40;;;35.00;64.80;;;;;;4995016;28;20467;-60
2023/07/09 10:35:14;;;;;;;4.90;3.50;;;35.00;64.50;;;;;;4993672;28;20460;-60
2023/07/09 10:38:10;;;;;;;3.87;2.97;;;35.20;64.90;;;;;;4994607;28;21002;-62
2023/07/09 10:40:41;;;;;;;6.70;3.73;;;35.40;64.70;;;;;;4992170;28;20985;-61
2023/07/09 10:43:15;;;;;;;6.00;3.40;;;35.60;64.50;;;;;;4994537;28;20461;-61
2023/07/09 10:45:46;;;;;;;7.33;3.53;;;35.80;63.50;;;;;;4976116;28;20472;-60
2023/07/09 10:48:17;;;;;;;7.23;3.33;;;35.90;61.90;;;;;;4976607;28;20456;-60
2023/07/09 10:50:49;;;;;;;5.57;3.50;;;36.00;60.10;;;;;;4994009;28;20478;-60
2023/07/09 10:53:30;;;;;;;4.73;3.00;;;35.90;59.60;;;;;;4977410;28;20460;-59
2023/07/09 10:56:03;;;;;;;4.00;3.03;;;35.80;60.20;;;;;;4994107;28;21020;-60
2023/07/09 10:58:36;;;;;;;6.00;3.27;;;35.80;61.80;;;;;;4994103;28;20535;-60
2023/07/09 11:01:04;;;;;;;7.77;3.53;;;36.10;62.10;;;;;;4977153;28;20958;-59
2023/07/09 11:03:42;;;;;;;4.70;3.20;;;36.40;61.70;;;;;;4993919;28;20488;-60
2023/07/09 11:06:20;;;;;;;6.90;3.40;;;36.50;61.00;;;;;;4993892;28;20484;-60
2023/07/09 11:08:52;;;;;;;7.37;3.67;;;36.50;60.80;;;;;;4993983;28;20459;-60
2023/07/09 11:11:31;;;;;;;4.77;3.33;;;36.60;60.10;;;;;;4994009;28;20483;-60
2023/07/09 11:14:04;;;;;;;5.10;3.43;;;36.80;60.70;;;;;;4993664;28;20468;-60
2023/07/09 11:16:33;;;;;;;5.40;3.37;;;36.90;60.70;;;;;;4993835;28;20492;-59
2023/07/09 11:19:03;;;;;;;5.93;3.47;;;37.10;60.20;;;;;;4993963;28;20496;-59
2023/07/09 11:21:37;;;;;;;5.10;3.30;;;37.30;60.00;;;;;;4993702;28;20453;-59
2023/07/09 11:24:26;;;;;;;6.20;3.63;;;37.60;59.70;;;;;;4993838;28;20455;-59
2023/07/09 11:26:53;;;;;;;6.57;3.90;;;37.80;60.30;;;;;;4993840;28;20464;-60
2023/07/09 11:29:25;;;;;;;4.93;3.30;;;38.10;58.10;;;;;;4993564;28;20631;-59
2023/07/09 11:34:19;;;;;;;7.60;3.60;;;38.10;57.70;;;;;;5395350;22;20526;-72
2023/07/09 11:36:57;;;;;;;6.20;3.67;;;38.30;57.30;;;;;;5012124;28;20706;-73
2023/07/09 11:39:43;;;;;;;8.00;3.90;;;38.60;57.60;;;;;;5012106;28;20463;-72
2023/07/09 11:42:26;;;;;;;6.07;4.00;;;38.70;57.20;;;;;;5012026;28;20468;-73
2023/07/09 11:44:59;;;;;;;6.17;3.97;;;38.50;57.30;;;;;;5012108;28;20463;-72
2023/07/09 11:47:30;;;;;;;5.93;3.70;;;38.60;57.40;;;;;;5013297;28;20547;-73
2023/07/09 11:50:00;;;;;;;6.83;4.17;;;38.60;56.50;;;;;;5031977;28;20466;-73
2023/07/09 11:52:31;;;;;;;4.63;3.20;;;38.50;57.50;;;;;;5031947;28;20458;-72
2023/07/09 11:55:03;;;;;;;7.40;3.60;;;38.70;56.20;;;;;;5030504;28;20452;-74
2023/07/09 11:57:30;;;;;;;7.00;3.73;;;38.70;56.80;;;;;;5029783;28;20228;-76
2023/07/09 12:00:01;;;;;;;5.43;4.00;;;38.70;57.80;;;;;;5032370;28;20458;-69
2023/07/09 12:02:34;;;;;;;9.10;4.10;;;38.80;56.00;;;;;;5032642;28;20524;-71
2023/07/09 12:05:05;;;;;;;10.17;3.60;;;38.80;57.20;;;;;;5032223;28;20490;-73
2023/07/09 12:07:32;;;;;;;7.33;3.73;;;38.90;57.00;;;;;;5032321;28;20465;-73
2023/07/09 12:10:05;;;;;;;8.77;4.00;;;38.80;56.10;;;;;;5032190;28;20972;-73
2023/07/09 12:12:32;;;;;;;6.90;3.73;;;38.90;57.50;;;;;;5032400;28;20473;-74
2023/07/09 12:14:59;;;;;;;6.60;3.70;;;38.90;55.30;;;;;;5015344;28;20489;-73
2023/07/09 12:17:30;;;;;;;6.93;4.03;;;38.80;56.30;;;;;;5031275;28;20465;-73
2023/07/09 12:19:57;;;;;;;8.80;4.03;;;39.00;54.70;;;;;;5031260;28;20467;-75
2023/07/09 12:22:24;;;;;;;5.97;3.50;;;39.10;54.60;;;;;;5032219;28;20462;-75
2023/07/09 12:24:53;;;;;;;5.00;3.50;;;39.00;53.80;;;;;;5026968;28;20490;-75
2023/07/09 12:27:29;;;;;;;5.53;3.73;;;38.70;53.80;;;;;;5012000;28;20542;-75
2023/07/09 12:29:58;;;;;;;9.80;3.50;;;38.50;54.90;;;;;;5012201;28;20833;-76
2023/07/09 12:32:26;;;;;;;5.13;3.50;;;38.70;54.30;;;;;;5016160;28;20469;-75
2023/07/09 12:34:55;;;;;;;7.67;3.80;;;38.90;52.80;;;;;;5031793;28;20895;-75
2023/07/09 12:37:25;;;;;;;8.10;3.90;;;39.10;52.00;;;;;;5031749;28;20481;-75
2023/07/09 12:39:53;;;;;;;9.53;3.60;;;39.20;50.30;;;;;;5032172;28;20462;-75
2023/07/09 12:42:25;;;;;;;8.67;3.23;;;39.30;50.90;;;;;;5030927;28;20789;-75
2023/07/09 12:44:54;;;;;;;6.90;3.60;;;39.30;50.20;;;;;;5032028;28;20463;-75
2023/07/09 12:47:24;;;;;;;5.13;3.57;;;39.30;52.80;;;;;;5031790;28;20451;-75
2023/07/09 12:49:52;;;;;;;6.27;3.63;;;39.60;53.10;;;;;;5031869;28;20478;-75
2023/07/09 12:52:24;;;;;;;7.23;3.67;;;39.90;53.20;;;;;;5031841;28;21002;-76
2023/07/09 12:54:57;;;;;;;6.60;3.80;;;40.10;51.90;;;;;;5032049;28;20470;-75
2023/07/09 12:57:25;;;;;;;6.70;3.80;;;40.20;52.00;;;;;;5031977;28;20945;-75
2023/07/09 12:59:56;;;;;;;5.20;3.20;;;40.10;51.90;;;;;;5032094;28;20459;-75
2023/07/09 13:02:25;;;;;;;5.60;3.73;;;39.90;51.70;;;;;;5031789;28;20450;-76
2023/07/09 13:05:01;;;;;;;6.80;4.20;;;39.80;53.00;;;;;;5032069;28;20455;-75
2023/07/09 13:07:35;;;;;;;4.90;3.50;;;39.70;53.50;;;;;;5033758;28;20458;-75